sensor_id;sensor_type;location;lat;lon;timestamp;temperature;humidity
6256;DHT22;3161;48.794;9.784;2022-08-05T00:00:33;23.50;99.90
6256;DHT22;3161;48.794;9.784;2022-08-05T00:03:01;23.50;99.90
6256;DHT22;3161;48.794;9.784;2022-08-05T00:05:28;23.40;99.90
6256;DHT22;3161;48.794;9.784;2022-08-05T00:07:56;23.40;99.90
6256;DHT22;3161;48.794;9.784;2022-08-05T00:10:23;23.30;99.90
6256;DHT22;3161;48.794;9.784;2022-08-05T00:12:51;23.30;99.90
6256;DHT22;3161;48.794;9.784;2022-08-05T00:15:19;23.30;99.90
6256;DHT22;3161;48.794;9.784;2022-08-05T00:17:46;23.20;99.90
6256;DHT22;3161;48.794;9.784;2022-08-05T00:20:14;23.20;99.90
6256;DHT22;3161;48.794;9.784;2022-08-05T00:22:41;23.20;99.90
6256;DHT22;3161;48.794;9.784;2022-08-05T00:25:09;23.20;99.90
6256;DHT22;3161;48.794;9.784;2022-08-05T00:27:37;23.10;99.90
6256;DHT22;3161;48.794;9.784;2022-08-05T00:30:05;23.10;99.90
6256;DHT22;3161;48.794;9.784;2022-08-05T00:32:33;23.10;99.90
6256;DHT22;3161;48.794;9.784;2022-08-05T00:35:00;23.00;99.90
6256;DHT22;3161;48.794;9.784;2022-08-05T00:37:28;23.00;99.90
6256;DHT22;3161;48.794;9.784;2022-08-05T00:39:55;23.00;99.90
6256;DHT22;3161;48.794;9.784;2022-08-05T00:42:31;23.00;99.90
6256;DHT22;3161;48.794;9.784;2022-08-05T00:44:59;23.00;99.90
6256;DHT22;3161;48.794;9.784;2022-08-05T00:47:27;22.90;99.90
6256;DHT22;3161;48.794;9.784;2022-08-05T00:49:55;22.90;99.90
6256;DHT22;3161;48.794;9.784;2022-08-05T00:52:23;22.90;99.90
6256;DHT22;3161;48.794;9.784;2022-08-05T00:54:51;22.80;99.90
6256;DHT22;3161;48.794;9.784;2022-08-05T00:57:18;22.80;99.90
6256;DHT22;3161;48.794;9.784;2022-08-05T00:59:47;22.80;99.90
6256;DHT22;3161;48.794;9.784;2022-08-05T01:02:15;22.80;99.90
6256;DHT22;3161;48.794;9.784;2022-08-05T01:04:42;22.80;99.90
6256;DHT22;3161;48.794;9.784;2022-08-05T01:07:10;22.70;99.90
6256;DHT22;3161;48.794;9.784;2022-08-05T01:09:37;22.70;99.90
6256;DHT22;3161;48.794;9.784;2022-08-05T01:12:13;22.70;99.90
6256;DHT22;3161;48.794;9.784;2022-08-05T01:14:55;22.60;99.90
6256;DHT22;3161;48.794;9.784;2022-08-05T01:17:28;22.60;99.90
6256;DHT22;3161;48.794;9.784;2022-08-05T01:28:26;22.50;99.90
6256;DHT22;3161;48.794;9.784;2022-08-05T01:31:09;22.40;99.90
6256;DHT22;3161;48.794;9.784;2022-08-05T01:33:45;22.40;99.90
6256;DHT22;3161;48.794;9.784;2022-08-05T01:36:10;22.40;99.90
6256;DHT22;3161;48.794;9.784;2022-08-05T01:38:39;22.30;99.90
6256;DHT22;3161;48.794;9.784;2022-08-05T01:41:07;22.30;99.90
6256;DHT22;3161;48.794;9.784;2022-08-05T01:43:35;22.20;99.90
6256;DHT22;3161;48.794;9.784;2022-08-05T01:46:05;22.20;99.90
6256;DHT22;3161;48.794;9.784;2022-08-05T01:48:35;22.10;99.90
6256;DHT22;3161;48.794;9.784;2022-08-05T01:51:04;22.00;99.90
6256;DHT22;3161;48.794;9.784;2022-08-05T01:53:33;22.00;99.90
6256;DHT22;3161;48.794;9.784;2022-08-05T01:56:01;21.90;99.90
6256;DHT22;3161;48.794;9.784;2022-08-05T01:58:30;21.80;99.90
6256;DHT22;3161;48.794;9.784;2022-08-05T02:00:59;21.70;99.90
6256;DHT22;3161;48.794;9.784;2022-08-05T02:03:36;21.70;99.90
6256;DHT22;3161;48.794;9.784;2022-08-05T02:06:06;21.70;99.90
6256;DHT22;3161;48.794;9.784;2022-08-05T02:08:34;21.70;99.90
6256;DHT22;3161;48.794;9.784;2022-08-05T02:11:10;21.70;99.90
6256;DHT22;3161;48.794;9.784;2022-08-05T02:13:51;21.70;99.90
6256;DHT22;3161;48.794;9.784;2022-08-05T02:19:10;21.80;99.90
6256;DHT22;3161;48.794;9.784;2022-08-05T02:21:30;21.90;99.90
6256;DHT22;3161;48.794;9.784;2022-08-05T02:24:05;21.80;99.90
6256;DHT22;3161;48.794;9.784;2022-08-05T02:26:44;21.80;99.90
6256;DHT22;3161;48.794;9.784;2022-08-05T02:29:07;21.80;99.90
6256;DHT22;3161;48.794;9.784;2022-08-05T02:31:36;21.90;99.90
6256;DHT22;3161;48.794;9.784;2022-08-05T02:34:07;21.90;99.90
6256;DHT22;3161;48.794;9.784;2022-08-05T02:36:44;21.90;99.90
6256;DHT22;3161;48.794;9.784;2022-08-05T02:39:08;21.90;99.90
6256;DHT22;3161;48.794;9.784;2022-08-05T02:41:36;21.80;99.90
6256;DHT22;3161;48.794;9.784;2022-08-05T02:44:09;21.80;99.90
6256;DHT22;3161;48.794;9.784;2022-08-05T02:46:39;21.80;99.90
6256;DHT22;3161;48.794;9.784;2022-08-05T02:49:07;21.90;99.90
6256;DHT22;3161;48.794;9.784;2022-08-05T02:51:40;21.90;99.90
6256;DHT22;3161;48.794;9.784;2022-08-05T02:54:08;21.80;99.90
6256;DHT22;3161;48.794;9.784;2022-08-05T02:56:37;21.80;99.90
6256;DHT22;3161;48.794;9.784;2022-08-05T02:59:05;21.80;99.90
6256;DHT22;3161;48.794;9.784;2022-08-05T03:01:35;21.80;99.90
6256;DHT22;3161;48.794;9.784;2022-08-05T03:04:08;21.90;99.90
6256;DHT22;3161;48.794;9.784;2022-08-05T03:06:37;21.80;99.90
6256;DHT22;3161;48.794;9.784;2022-08-05T03:09:05;21.80;99.90
6256;DHT22;3161;48.794;9.784;2022-08-05T03:11:33;21.80;99.90
6256;DHT22;3161;48.794;9.784;2022-08-05T03:14:01;21.80;99.90
6256;DHT22;3161;48.794;9.784;2022-08-05T03:16:28;21.70;99.90
6256;DHT22;3161;48.794;9.784;2022-08-05T03:18:56;21.70;99.90
6256;DHT22;3161;48.794;9.784;2022-08-05T03:21:23;21.70;99.90
6256;DHT22;3161;48.794;9.784;2022-08-05T03:23:52;21.70;99.90
6256;DHT22;3161;48.794;9.784;2022-08-05T03:26:20;21.70;99.90
6256;DHT22;3161;48.794;9.784;2022-08-05T03:28:47;21.70;99.90
6256;DHT22;3161;48.794;9.784;2022-08-05T03:31:15;21.70;99.90
6256;DHT22;3161;48.794;9.784;2022-08-05T03:33:43;21.70;99.90
6256;DHT22;3161;48.794;9.784;2022-08-05T03:36:10;21.70;99.90
6256;DHT22;3161;48.794;9.784;2022-08-05T03:38:41;21.60;99.90
6256;DHT22;3161;48.794;9.784;2022-08-05T03:41:09;21.60;99.90
6256;DHT22;3161;48.794;9.784;2022-08-05T03:43:37;21.60;99.90
6256;DHT22;3161;48.794;9.784;2022-08-05T03:46:04;21.60;99.90
6256;DHT22;3161;48.794;9.784;2022-08-05T03:48:32;21.60;99.90
6256;DHT22;3161;48.794;9.784;2022-08-05T03:51:07;21.50;99.90
6256;DHT22;3161;48.794;9.784;2022-08-05T03:53:54;21.50;99.90
6256;DHT22;3161;48.794;9.784;2022-08-05T03:56:25;21.50;99.90
6256;DHT22;3161;48.794;9.784;2022-08-05T03:58:56;21.50;99.90
6256;DHT22;3161;48.794;9.784;2022-08-05T04:01:24;21.50;99.90
6256;DHT22;3161;48.794;9.784;2022-08-05T04:03:53;21.50;99.90
6256;DHT22;3161;48.794;9.784;2022-08-05T04:06:22;21.50;99.90
6256;DHT22;3161;48.794;9.784;2022-08-05T04:08:50;21.50;99.90
6256;DHT22;3161;48.794;9.784;2022-08-05T04:11:19;21.50;99.90
6256;DHT22;3161;48.794;9.784;2022-08-05T04:13:47;21.50;99.90
6256;DHT22;3161;48.794;9.784;2022-08-05T04:16:16;21.50;99.90
6256;DHT22;3161;48.794;9.784;2022-08-05T04:18:44;21.50;99.90
6256;DHT22;3161;48.794;9.784;2022-08-05T04:21:12;21.60;99.90
6256;DHT22;3161;48.794;9.784;2022-08-05T04:23:39;21.60;99.90
6256;DHT22;3161;48.794;9.784;2022-08-05T04:26:07;21.60;99.90
6256;DHT22;3161;48.794;9.784;2022-08-05T04:28:35;21.60;99.90
6256;DHT22;3161;48.794;9.784;2022-08-05T04:31:02;21.60;99.90
6256;DHT22;3161;48.794;9.784;2022-08-05T04:33:30;21.60;99.90
6256;DHT22;3161;48.794;9.784;2022-08-05T04:35:57;21.60;99.90
6256;DHT22;3161;48.794;9.784;2022-08-05T04:38:25;21.60;99.90
6256;DHT22;3161;48.794;9.784;2022-08-05T04:40:53;21.60;99.90
6256;DHT22;3161;48.794;9.784;2022-08-05T04:43:20;21.60;99.90
6256;DHT22;3161;48.794;9.784;2022-08-05T04:45:48;21.70;99.90
6256;DHT22;3161;48.794;9.784;2022-08-05T04:48:16;21.70;99.90
6256;DHT22;3161;48.794;9.784;2022-08-05T04:50:46;21.70;99.90
6256;DHT22;3161;48.794;9.784;2022-08-05T04:53:16;21.70;99.90
6256;DHT22;3161;48.794;9.784;2022-08-05T04:55:45;21.80;99.90
6256;DHT22;3161;48.794;9.784;2022-08-05T04:58:15;21.80;99.90
6256;DHT22;3161;48.794;9.784;2022-08-05T05:00:43;21.80;99.90
6256;DHT22;3161;48.794;9.784;2022-08-05T05:03:11;21.70;99.90
6256;DHT22;3161;48.794;9.784;2022-08-05T05:05:39;21.70;99.90
6256;DHT22;3161;48.794;9.784;2022-08-05T05:08:08;21.70;99.90
6256;DHT22;3161;48.794;9.784;2022-08-05T05:10:41;21.70;99.90
6256;DHT22;3161;48.794;9.784;2022-08-05T05:13:10;21.80;99.90
6256;DHT22;3161;48.794;9.784;2022-08-05T05:15:38;21.80;99.90
6256;DHT22;3161;48.794;9.784;2022-08-05T05:18:06;21.80;99.90
6256;DHT22;3161;48.794;9.784;2022-08-05T05:20:35;21.80;99.90
6256;DHT22;3161;48.794;9.784;2022-08-05T05:23:03;21.80;99.90
6256;DHT22;3161;48.794;9.784;2022-08-05T05:25:31;21.80;99.90
6256;DHT22;3161;48.794;9.784;2022-08-05T05:27:58;21.90;99.90
6256;DHT22;3161;48.794;9.784;2022-08-05T05:30:26;21.90;99.90
6256;DHT22;3161;48.794;9.784;2022-08-05T05:32:54;21.90;99.90
6256;DHT22;3161;48.794;9.784;2022-08-05T05:35:22;22.00;99.90
6256;DHT22;3161;48.794;9.784;2022-08-05T05:37:50;22.00;99.90
6256;DHT22;3161;48.794;9.784;2022-08-05T05:40:20;21.90;99.90
6256;DHT22;3161;48.794;9.784;2022-08-05T05:42:49;21.90;99.90
6256;DHT22;3161;48.794;9.784;2022-08-05T05:45:18;21.90;99.90
6256;DHT22;3161;48.794;9.784;2022-08-05T05:47:46;21.90;99.90
6256;DHT22;3161;48.794;9.784;2022-08-05T05:50:15;21.90;99.90
6256;DHT22;3161;48.794;9.784;2022-08-05T05:52:43;21.90;99.90
6256;DHT22;3161;48.794;9.784;2022-08-05T05:55:13;22.00;99.90
6256;DHT22;3161;48.794;9.784;2022-08-05T05:57:42;21.90;99.90
6256;DHT22;3161;48.794;9.784;2022-08-05T06:00:16;21.90;99.90
6256;DHT22;3161;48.794;9.784;2022-08-05T06:02:44;22.00;99.90
6256;DHT22;3161;48.794;9.784;2022-08-05T06:05:14;22.00;99.90
6256;DHT22;3161;48.794;9.784;2022-08-05T06:07:42;22.00;99.90
6256;DHT22;3161;48.794;9.784;2022-08-05T06:10:10;22.10;99.90
6256;DHT22;3161;48.794;9.784;2022-08-05T06:12:39;22.10;99.90
6256;DHT22;3161;48.794;9.784;2022-08-05T06:15:07;22.20;99.90
6256;DHT22;3161;48.794;9.784;2022-08-05T06:17:35;22.20;99.90
6256;DHT22;3161;48.794;9.784;2022-08-05T06:20:04;22.30;99.90
6256;DHT22;3161;48.794;9.784;2022-08-05T06:22:33;22.30;99.90
6256;DHT22;3161;48.794;9.784;2022-08-05T06:25:02;22.30;99.90
6256;DHT22;3161;48.794;9.784;2022-08-05T06:27:30;22.40;99.90
6256;DHT22;3161;48.794;9.784;2022-08-05T06:29:58;22.40;99.90
6256;DHT22;3161;48.794;9.784;2022-08-05T06:32:25;22.50;99.90
6256;DHT22;3161;48.794;9.784;2022-08-05T06:34:53;22.60;99.90
6256;DHT22;3161;48.794;9.784;2022-08-05T06:37:21;22.70;99.90
6256;DHT22;3161;48.794;9.784;2022-08-05T06:39:48;22.90;99.90
6256;DHT22;3161;48.794;9.784;2022-08-05T06:42:16;23.10;99.90
6256;DHT22;3161;48.794;9.784;2022-08-05T06:44:43;23.30;99.90
6256;DHT22;3161;48.794;9.784;2022-08-05T06:47:11;23.60;99.90
6256;DHT22;3161;48.794;9.784;2022-08-05T06:49:38;23.80;99.90
6256;DHT22;3161;48.794;9.784;2022-08-05T06:52:06;24.00;99.90
6256;DHT22;3161;48.794;9.784;2022-08-05T06:54:33;24.20;99.90
6256;DHT22;3161;48.794;9.784;2022-08-05T06:57:01;24.30;99.90
6256;DHT22;3161;48.794;9.784;2022-08-05T06:59:28;24.50;99.90
6256;DHT22;3161;48.794;9.784;2022-08-05T07:01:56;24.70;99.90
6256;DHT22;3161;48.794;9.784;2022-08-05T07:04:24;24.90;99.90
6256;DHT22;3161;48.794;9.784;2022-08-05T07:06:51;25.10;99.90
6256;DHT22;3161;48.794;9.784;2022-08-05T07:09:19;25.30;99.90
6256;DHT22;3161;48.794;9.784;2022-08-05T07:11:46;25.50;99.90
6256;DHT22;3161;48.794;9.784;2022-08-05T07:14:14;25.90;99.90
6256;DHT22;3161;48.794;9.784;2022-08-05T07:17:00;26.60;99.90
6256;DHT22;3161;48.794;9.784;2022-08-05T07:19:28;27.70;99.90
6256;DHT22;3161;48.794;9.784;2022-08-05T07:21:55;28.50;99.90
6256;DHT22;3161;48.794;9.784;2022-08-05T07:24:23;29.20;99.90
6256;DHT22;3161;48.794;9.784;2022-08-05T07:26:51;29.50;98.40
6256;DHT22;3161;48.794;9.784;2022-08-05T07:29:19;29.60;97.70
6256;DHT22;3161;48.794;9.784;2022-08-05T07:31:46;29.70;96.70
6256;DHT22;3161;48.794;9.784;2022-08-05T07:34:14;29.60;95.70
6256;DHT22;3161;48.794;9.784;2022-08-05T07:36:41;29.40;96.00
6256;DHT22;3161;48.794;9.784;2022-08-05T07:39:09;29.40;96.00
6256;DHT22;3161;48.794;9.784;2022-08-05T07:41:36;29.40;95.00
6256;DHT22;3161;48.794;9.784;2022-08-05T07:44:06;29.40;94.30
6256;DHT22;3161;48.794;9.784;2022-08-05T07:46:34;29.30;95.10
6256;DHT22;3161;48.794;9.784;2022-08-05T07:49:03;29.30;94.20
6256;DHT22;3161;48.794;9.784;2022-08-05T07:51:32;29.30;92.90
6256;DHT22;3161;48.794;9.784;2022-08-05T07:54:00;29.40;92.80
6256;DHT22;3161;48.794;9.784;2022-08-05T07:56:27;29.50;93.50
6256;DHT22;3161;48.794;9.784;2022-08-05T07:58:55;29.70;92.60
6256;DHT22;3161;48.794;9.784;2022-08-05T08:01:22;29.90;93.20
6256;DHT22;3161;48.794;9.784;2022-08-05T08:03:52;30.20;91.50
6256;DHT22;3161;48.794;9.784;2022-08-05T08:06:19;30.40;91.90
6256;DHT22;3161;48.794;9.784;2022-08-05T08:08:47;30.70;90.10
6256;DHT22;3161;48.794;9.784;2022-08-05T08:11:14;30.90;89.50
6256;DHT22;3161;48.794;9.784;2022-08-05T08:13:42;31.00;90.00
6256;DHT22;3161;48.794;9.784;2022-08-05T08:16:10;31.10;89.50
6256;DHT22;3161;48.794;9.784;2022-08-05T08:18:37;31.10;90.10
6256;DHT22;3161;48.794;9.784;2022-08-05T08:21:05;31.20;87.60
6256;DHT22;3161;48.794;9.784;2022-08-05T08:23:32;31.30;84.20
6256;DHT22;3161;48.794;9.784;2022-08-05T08:26:01;31.50;84.90
6256;DHT22;3161;48.794;9.784;2022-08-05T08:28:29;31.70;79.70
6256;DHT22;3161;48.794;9.784;2022-08-05T08:30:56;31.90;75.20
6256;DHT22;3161;48.794;9.784;2022-08-05T08:33:24;32.00;73.70
6256;DHT22;3161;48.794;9.784;2022-08-05T08:35:51;32.20;73.50
6256;DHT22;3161;48.794;9.784;2022-08-05T08:38:19;32.60;70.90
6256;DHT22;3161;48.794;9.784;2022-08-05T08:40:46;33.00;68.30
6256;DHT22;3161;48.794;9.784;2022-08-05T08:43:15;33.20;68.10
6256;DHT22;3161;48.794;9.784;2022-08-05T08:45:46;33.60;67.90
6256;DHT22;3161;48.794;9.784;2022-08-05T08:48:15;34.00;64.10
6256;DHT22;3161;48.794;9.784;2022-08-05T08:50:46;34.40;62.70
6256;DHT22;3161;48.794;9.784;2022-08-05T08:53:16;34.60;59.30
6256;DHT22;3161;48.794;9.784;2022-08-05T08:56:04;34.60;60.50
6256;DHT22;3161;48.794;9.784;2022-08-05T08:58:31;34.80;59.40
6256;DHT22;3161;48.794;9.784;2022-08-05T09:00:59;34.90;58.60
6256;DHT22;3161;48.794;9.784;2022-08-05T09:03:27;34.90;59.70
6256;DHT22;3161;48.794;9.784;2022-08-05T09:05:55;34.80;59.70
6256;DHT22;3161;48.794;9.784;2022-08-05T09:08:23;34.70;55.60
6256;DHT22;3161;48.794;9.784;2022-08-05T09:10:51;34.40;58.10
6256;DHT22;3161;48.794;9.784;2022-08-05T09:13:18;34.10;57.70
6256;DHT22;3161;48.794;9.784;2022-08-05T09:15:46;33.80;57.90
6256;DHT22;3161;48.794;9.784;2022-08-05T09:18:14;33.60;59.10
6256;DHT22;3161;48.794;9.784;2022-08-05T09:20:44;33.50;60.30
6256;DHT22;3161;48.794;9.784;2022-08-05T09:23:14;33.30;59.00
6256;DHT22;3161;48.794;9.784;2022-08-05T09:25:44;33.20;60.00
6256;DHT22;3161;48.794;9.784;2022-08-05T09:28:16;33.20;58.50
6256;DHT22;3161;48.794;9.784;2022-08-05T09:30:56;33.00;59.20
6256;DHT22;3161;48.794;9.784;2022-08-05T09:33:24;32.90;58.30
6256;DHT22;3161;48.794;9.784;2022-08-05T09:35:59;32.80;59.00
6256;DHT22;3161;48.794;9.784;2022-08-05T09:38:27;32.80;59.60
6256;DHT22;3161;48.794;9.784;2022-08-05T09:41:07;32.80;58.90
6256;DHT22;3161;48.794;9.784;2022-08-05T09:43:34;32.70;57.50
6256;DHT22;3161;48.794;9.784;2022-08-05T09:46:04;32.60;57.90
6256;DHT22;3161;48.794;9.784;2022-08-05T09:48:34;32.70;59.80
6256;DHT22;3161;48.794;9.784;2022-08-05T09:51:05;32.70;58.00
6256;DHT22;3161;48.794;9.784;2022-08-05T09:53:51;32.80;58.10
6256;DHT22;3161;48.794;9.784;2022-08-05T09:56:28;32.70;57.20
6256;DHT22;3161;48.794;9.784;2022-08-05T09:59:01;32.50;57.70
6256;DHT22;3161;48.794;9.784;2022-08-05T10:01:30;32.30;56.60
6256;DHT22;3161;48.794;9.784;2022-08-05T10:04:05;32.10;57.80
6256;DHT22;3161;48.794;9.784;2022-08-05T10:06:34;31.90;58.00
6256;DHT22;3161;48.794;9.784;2022-08-05T10:09:13;31.70;58.00
6256;DHT22;3161;48.794;9.784;2022-08-05T10:11:42;31.60;59.30
6256;DHT22;3161;48.794;9.784;2022-08-05T10:14:28;31.40;59.90
6256;DHT22;3161;48.794;9.784;2022-08-05T10:17:10;31.30;59.40
6256;DHT22;3161;48.794;9.784;2022-08-05T10:19:26;31.10;59.60
6256;DHT22;3161;48.794;9.784;2022-08-05T10:21:54;31.00;61.40
6256;DHT22;3161;48.794;9.784;2022-08-05T10:24:21;30.90;61.20
6256;DHT22;3161;48.794;9.784;2022-08-05T10:26:49;30.90;63.00
6256;DHT22;3161;48.794;9.784;2022-08-05T10:29:21;31.00;63.70
6256;DHT22;3161;48.794;9.784;2022-08-05T10:31:50;31.10;60.00
6256;DHT22;3161;48.794;9.784;2022-08-05T10:34:18;31.20;60.30
6256;DHT22;3161;48.794;9.784;2022-08-05T10:36:45;31.40;62.20
6256;DHT22;3161;48.794;9.784;2022-08-05T10:39:18;31.40;61.60
6256;DHT22;3161;48.794;9.784;2022-08-05T10:42:10;31.40;60.00
6256;DHT22;3161;48.794;9.784;2022-08-05T10:44:31;31.40;60.50
6256;DHT22;3161;48.794;9.784;2022-08-05T10:47:13;31.50;60.00
6256;DHT22;3161;48.794;9.784;2022-08-05T10:52:42;31.70;59.50
6256;DHT22;3161;48.794;9.784;2022-08-05T10:55:12;31.80;58.30
6256;DHT22;3161;48.794;9.784;2022-08-05T10:57:40;31.90;58.00
6256;DHT22;3161;48.794;9.784;2022-08-05T11:00:17;32.00;59.10
6256;DHT22;3161;48.794;9.784;2022-08-05T11:05:36;32.10;56.80
6256;DHT22;3161;48.794;9.784;2022-08-05T11:08:07;32.20;57.70
6256;DHT22;3161;48.794;9.784;2022-08-05T11:10:37;32.30;58.50
6256;DHT22;3161;48.794;9.784;2022-08-05T11:13:07;32.50;57.60
6256;DHT22;3161;48.794;9.784;2022-08-05T11:15:36;32.60;56.30
6256;DHT22;3161;48.794;9.784;2022-08-05T11:18:27;32.60;57.70
6256;DHT22;3161;48.794;9.784;2022-08-05T11:20:55;32.60;56.40
6256;DHT22;3161;48.794;9.784;2022-08-05T11:28:52;32.80;54.50
6256;DHT22;3161;48.794;9.784;2022-08-05T11:31:23;32.80;55.80
6256;DHT22;3161;48.794;9.784;2022-08-05T11:33:55;32.80;54.40
6256;DHT22;3161;48.794;9.784;2022-08-05T11:36:46;32.80;54.20
6256;DHT22;3161;48.794;9.784;2022-08-05T11:39:18;32.70;56.70
6256;DHT22;3161;48.794;9.784;2022-08-05T11:41:50;32.80;56.00
6256;DHT22;3161;48.794;9.784;2022-08-05T11:44:19;32.80;56.60
6256;DHT22;3161;48.794;9.784;2022-08-05T11:46:53;32.80;56.60
6256;DHT22;3161;48.794;9.784;2022-08-05T11:49:20;32.80;55.60
6256;DHT22;3161;48.794;9.784;2022-08-05T11:51:50;32.90;55.10
6256;DHT22;3161;48.794;9.784;2022-08-05T11:54:30;33.00;54.30
6256;DHT22;3161;48.794;9.784;2022-08-05T11:57:04;33.10;56.90
6256;DHT22;3161;48.794;9.784;2022-08-05T11:59:32;33.10;57.20
6256;DHT22;3161;48.794;9.784;2022-08-05T12:02:06;33.20;56.00
6256;DHT22;3161;48.794;9.784;2022-08-05T12:04:42;33.40;54.60
6256;DHT22;3161;48.794;9.784;2022-08-05T12:07:13;33.50;53.00
6256;DHT22;3161;48.794;9.784;2022-08-05T12:09:42;33.50;53.80
6256;DHT22;3161;48.794;9.784;2022-08-05T12:12:11;33.50;53.10
6256;DHT22;3161;48.794;9.784;2022-08-05T12:14:40;33.50;53.00
6256;DHT22;3161;48.794;9.784;2022-08-05T12:17:13;33.60;53.20
6256;DHT22;3161;48.794;9.784;2022-08-05T12:19:43;34.00;55.30
6256;DHT22;3161;48.794;9.784;2022-08-05T12:22:12;34.50;53.30
6256;DHT22;3161;48.794;9.784;2022-08-05T12:24:47;34.90;51.70
6256;DHT22;3161;48.794;9.784;2022-08-05T12:27:23;35.40;51.80
6256;DHT22;3161;48.794;9.784;2022-08-05T12:30:01;35.70;50.20
6256;DHT22;3161;48.794;9.784;2022-08-05T12:32:33;35.90;49.20
6256;DHT22;3161;48.794;9.784;2022-08-05T12:35:02;36.10;49.10
6256;DHT22;3161;48.794;9.784;2022-08-05T12:37:31;36.30;46.20
6256;DHT22;3161;48.794;9.784;2022-08-05T12:39:59;36.30;48.90
6256;DHT22;3161;48.794;9.784;2022-08-05T12:42:31;36.30;46.40
6256;DHT22;3161;48.794;9.784;2022-08-05T12:45:08;36.10;47.80
6256;DHT22;3161;48.794;9.784;2022-08-05T12:47:31;36.00;47.60
6256;DHT22;3161;48.794;9.784;2022-08-05T12:50:00;35.80;47.50
6256;DHT22;3161;48.794;9.784;2022-08-05T12:52:29;35.80;49.00
6256;DHT22;3161;48.794;9.784;2022-08-05T12:54:56;35.70;49.10
6256;DHT22;3161;48.794;9.784;2022-08-05T12:57:24;35.60;49.30
6256;DHT22;3161;48.794;9.784;2022-08-05T12:59:53;35.50;49.20
6256;DHT22;3161;48.794;9.784;2022-08-05T13:02:24;35.50;47.20
6256;DHT22;3161;48.794;9.784;2022-08-05T13:04:53;35.40;48.00
6256;DHT22;3161;48.794;9.784;2022-08-05T13:07:23;35.30;50.20
6256;DHT22;3161;48.794;9.784;2022-08-05T13:09:57;35.30;50.50
6256;DHT22;3161;48.794;9.784;2022-08-05T13:12:23;35.30;50.40
6256;DHT22;3161;48.794;9.784;2022-08-05T13:14:56;35.40;49.40
6256;DHT22;3161;48.794;9.784;2022-08-05T13:17:29;35.50;50.40
6256;DHT22;3161;48.794;9.784;2022-08-05T13:19:59;35.50;50.20
6256;DHT22;3161;48.794;9.784;2022-08-05T13:22:27;35.70;49.90
6256;DHT22;3161;48.794;9.784;2022-08-05T13:24:55;35.90;48.10
6256;DHT22;3161;48.794;9.784;2022-08-05T13:27:32;36.10;48.20
6256;DHT22;3161;48.794;9.784;2022-08-05T13:29:59;36.40;48.50
6256;DHT22;3161;48.794;9.784;2022-08-05T13:32:27;38.00;46.30
6256;DHT22;3161;48.794;9.784;2022-08-05T13:34:55;40.40;42.60
6256;DHT22;3161;48.794;9.784;2022-08-05T13:37:23;42.80;37.10
6256;DHT22;3161;48.794;9.784;2022-08-05T13:39:51;44.50;34.40
6256;DHT22;3161;48.794;9.784;2022-08-05T13:42:22;46.00;33.10
6256;DHT22;3161;48.794;9.784;2022-08-05T13:44:55;47.70;31.10
6256;DHT22;3161;48.794;9.784;2022-08-05T13:47:20;49.20;30.10
6256;DHT22;3161;48.794;9.784;2022-08-05T13:49:49;50.60;27.60
6256;DHT22;3161;48.794;9.784;2022-08-05T13:52:25;51.10;26.20
6256;DHT22;3161;48.794;9.784;2022-08-05T13:54:53;51.20;25.90
6256;DHT22;3161;48.794;9.784;2022-08-05T13:57:20;51.50;26.80
6256;DHT22;3161;48.794;9.784;2022-08-05T13:59:48;52.20;25.80
6256;DHT22;3161;48.794;9.784;2022-08-05T14:02:16;52.90;25.10
6256;DHT22;3161;48.794;9.784;2022-08-05T14:04:45;53.50;24.00
6256;DHT22;3161;48.794;9.784;2022-08-05T14:07:34;53.90;23.50
6256;DHT22;3161;48.794;9.784;2022-08-05T14:10:10;52.70;24.10
6256;DHT22;3161;48.794;9.784;2022-08-05T14:12:34;50.60;25.60
6256;DHT22;3161;48.794;9.784;2022-08-05T14:15:03;48.80;26.50
6256;DHT22;3161;48.794;9.784;2022-08-05T14:17:31;48.20;26.30
6256;DHT22;3161;48.794;9.784;2022-08-05T14:19:58;47.30;26.40
6256;DHT22;3161;48.794;9.784;2022-08-05T14:22:26;46.40;28.10
6256;DHT22;3161;48.794;9.784;2022-08-05T14:24:53;45.50;27.80
6256;DHT22;3161;48.794;9.784;2022-08-05T14:27:21;44.10;29.40
6256;DHT22;3161;48.794;9.784;2022-08-05T14:29:48;42.80;30.00
6256;DHT22;3161;48.794;9.784;2022-08-05T14:32:16;41.60;30.80
6256;DHT22;3161;48.794;9.784;2022-08-05T14:34:44;40.80;34.60
6256;DHT22;3161;48.794;9.784;2022-08-05T14:37:11;39.80;33.30
6256;DHT22;3161;48.794;9.784;2022-08-05T14:39:39;39.10;34.20
6256;DHT22;3161;48.794;9.784;2022-08-05T14:42:06;38.50;36.30
6256;DHT22;3161;48.794;9.784;2022-08-05T14:44:34;37.90;36.80
6256;DHT22;3161;48.794;9.784;2022-08-05T14:47:02;37.30;36.70
6256;DHT22;3161;48.794;9.784;2022-08-05T14:49:29;36.70;37.80
6256;DHT22;3161;48.794;9.784;2022-08-05T14:51:57;36.40;39.50
6256;DHT22;3161;48.794;9.784;2022-08-05T14:54:24;36.10;38.90
6256;DHT22;3161;48.794;9.784;2022-08-05T14:56:52;35.80;40.10
6256;DHT22;3161;48.794;9.784;2022-08-05T14:59:20;35.40;40.60
6256;DHT22;3161;48.794;9.784;2022-08-05T15:01:47;35.20;40.50
6256;DHT22;3161;48.794;9.784;2022-08-05T15:04:16;34.90;41.00
6256;DHT22;3161;48.794;9.784;2022-08-05T15:06:44;34.70;42.00
6256;DHT22;3161;48.794;9.784;2022-08-05T15:09:11;34.50;41.70
6256;DHT22;3161;48.794;9.784;2022-08-05T15:11:39;34.30;43.30
6256;DHT22;3161;48.794;9.784;2022-08-05T15:14:07;34.10;42.30
6256;DHT22;3161;48.794;9.784;2022-08-05T15:16:34;33.90;43.00
6256;DHT22;3161;48.794;9.784;2022-08-05T15:19:02;33.70;44.50
6256;DHT22;3161;48.794;9.784;2022-08-05T15:21:29;33.70;46.50
6256;DHT22;3161;48.794;9.784;2022-08-05T15:23:57;33.50;44.50
6256;DHT22;3161;48.794;9.784;2022-08-05T15:26:24;33.40;44.10
6256;DHT22;3161;48.794;9.784;2022-08-05T15:28:52;33.20;44.30
6256;DHT22;3161;48.794;9.784;2022-08-05T15:31:19;33.10;45.30
6256;DHT22;3161;48.794;9.784;2022-08-05T15:33:47;33.00;46.80
6256;DHT22;3161;48.794;9.784;2022-08-05T15:36:15;32.90;47.70
6256;DHT22;3161;48.794;9.784;2022-08-05T15:38:42;32.80;46.60
6256;DHT22;3161;48.794;9.784;2022-08-05T15:41:10;32.80;47.70
6256;DHT22;3161;48.794;9.784;2022-08-05T15:43:38;32.70;49.40
6256;DHT22;3161;48.794;9.784;2022-08-05T15:46:05;32.60;46.50
6256;DHT22;3161;48.794;9.784;2022-08-05T15:48:33;32.50;47.60
6256;DHT22;3161;48.794;9.784;2022-08-05T15:51:00;32.50;48.10
6256;DHT22;3161;48.794;9.784;2022-08-05T15:53:28;32.40;48.80
6256;DHT22;3161;48.794;9.784;2022-08-05T15:55:55;32.40;49.50
6256;DHT22;3161;48.794;9.784;2022-08-05T15:58:23;32.30;48.00
6256;DHT22;3161;48.794;9.784;2022-08-05T16:00:50;32.30;48.60
6256;DHT22;3161;48.794;9.784;2022-08-05T16:03:18;32.20;49.50
6256;DHT22;3161;48.794;9.784;2022-08-05T16:05:45;32.20;49.40
6256;DHT22;3161;48.794;9.784;2022-08-05T16:08:13;32.10;49.50
6256;DHT22;3161;48.794;9.784;2022-08-05T16:10:40;32.10;50.80
6256;DHT22;3161;48.794;9.784;2022-08-05T16:13:08;32.10;50.00
6256;DHT22;3161;48.794;9.784;2022-08-05T16:15:35;32.00;49.90
6256;DHT22;3161;48.794;9.784;2022-08-05T16:18:03;31.90;50.40
6256;DHT22;3161;48.794;9.784;2022-08-05T16:20:31;31.90;50.60
6256;DHT22;3161;48.794;9.784;2022-08-05T16:22:58;31.70;50.40
6256;DHT22;3161;48.794;9.784;2022-08-05T16:25:26;31.70;51.10
6256;DHT22;3161;48.794;9.784;2022-08-05T16:27:53;31.60;50.90
6256;DHT22;3161;48.794;9.784;2022-08-05T16:30:21;31.70;50.80
6256;DHT22;3161;48.794;9.784;2022-08-05T16:32:48;31.70;51.80
6256;DHT22;3161;48.794;9.784;2022-08-05T16:35:16;31.80;51.60
6256;DHT22;3161;48.794;9.784;2022-08-05T16:37:43;31.80;51.90